createdAt,value
2018-03-17T00:00:05.728Z,2.60
2018-03-17T00:02:34.701Z,2.50
2018-03-17T00:05:04.910Z,2.60
2018-03-17T00:07:34.311Z,2.60
2018-03-17T00:10:03.582Z,2.60
2018-03-17T00:12:32.968Z,2.60
2018-03-17T00:15:02.319Z,2.60
2018-03-17T00:17:31.504Z,2.50
2018-03-17T00:20:00.724Z,2.40
2018-03-17T00:22:30.112Z,2.40
2018-03-17T00:24:59.421Z,2.40
2018-03-17T00:27:28.695Z,2.40
2018-03-17T00:29:57.893Z,2.40
2018-03-17T00:32:27.101Z,2.50
2018-03-17T00:34:56.406Z,2.50
2018-03-17T00:37:25.657Z,2.50
2018-03-17T00:39:55.021Z,2.50
2018-03-17T00:42:25.213Z,2.60
2018-03-17T00:44:54.451Z,2.50
2018-03-17T00:47:24.557Z,2.60
2018-03-17T00:49:53.831Z,2.60
2018-03-17T00:52:23.098Z,2.70
2018-03-17T00:54:53.075Z,2.70
2018-03-17T00:57:22.341Z,2.70
2018-03-17T00:59:51.546Z,2.70
2018-03-17T01:02:20.819Z,2.70
2018-03-17T01:04:49.946Z,2.60
2018-03-17T01:07:19.146Z,2.60
2018-03-17T01:09:48.438Z,2.50
2018-03-17T01:12:17.802Z,2.50
2018-03-17T01:14:47.857Z,2.50
2018-03-17T01:17:17.060Z,2.40
2018-03-17T01:19:46.367Z,2.40
2018-03-17T01:22:15.564Z,2.40
2018-03-17T01:24:44.819Z,2.40
2018-03-17T01:27:14.068Z,2.40
2018-03-17T01:29:43.463Z,2.40
2018-03-17T01:32:12.772Z,2.30
2018-03-17T01:34:41.768Z,2.30
2018-03-17T01:37:10.784Z,2.20
2018-03-17T01:39:40.032Z,2.20
2018-03-17T01:42:09.269Z,2.10
2018-03-17T01:44:38.455Z,2.10
2018-03-17T01:47:07.639Z,2.10
2018-03-17T01:49:36.835Z,2.00
2018-03-17T01:52:06.085Z,2.00
2018-03-17T01:54:36.046Z,1.90
2018-03-17T01:57:05.265Z,1.90
2018-03-17T01:59:34.453Z,1.80
2018-03-17T02:02:03.739Z,1.80
2018-03-17T02:04:32.969Z,1.80
2018-03-17T02:07:03.014Z,1.80
2018-03-17T02:09:33.006Z,1.70
2018-03-17T02:12:03.109Z,1.60
2018-03-17T02:14:32.400Z,1.60
2018-03-17T02:17:01.681Z,1.60
2018-03-17T02:19:30.909Z,1.60
2018-03-17T02:22:00.162Z,1.60
2018-03-17T02:24:29.388Z,1.50
2018-03-17T02:26:58.704Z,1.40
2018-03-17T02:29:27.889Z,1.50
2018-03-17T02:31:57.236Z,1.40
2018-03-17T02:34:26.455Z,1.30
2018-03-17T02:36:55.729Z,1.30
2018-03-17T02:39:24.998Z,1.20
2018-03-17T02:41:54.294Z,1.20
2018-03-17T02:44:33.795Z,1.20
2018-03-17T02:47:03.048Z,1.30
2018-03-17T02:49:32.267Z,1.30
2018-03-17T02:52:01.525Z,1.30
2018-03-17T02:54:30.742Z,1.40
2018-03-17T02:57:00.780Z,1.40
2018-03-17T02:59:30.776Z,1.40
2018-03-17T03:02:00.793Z,1.40
2018-03-17T03:04:30.075Z,1.40
2018-03-17T03:06:59.261Z,1.40
2018-03-17T03:09:29.712Z,1.30
2018-03-17T03:11:59.764Z,1.30
2018-03-17T03:14:29.835Z,1.20
2018-03-17T03:16:59.126Z,1.20
2018-03-17T03:19:28.397Z,1.10
2018-03-17T03:21:57.638Z,1.10
2018-03-17T03:24:26.934Z,1.10
2018-03-17T03:26:56.181Z,1.00
2018-03-17T03:29:25.365Z,1.00
2018-03-17T03:31:55.514Z,1.10
2018-03-17T03:34:24.817Z,1.10
2018-03-17T03:36:54.084Z,1.10
2018-03-17T03:39:24.116Z,1.20
2018-03-17T03:41:53.374Z,1.10
2018-03-17T03:44:22.558Z,1.20
2018-03-17T03:46:51.894Z,1.20
2018-03-17T03:49:21.899Z,1.30
2018-03-17T03:51:51.145Z,1.30
2018-03-17T03:54:20.415Z,1.30
2018-03-17T03:56:50.703Z,1.30
2018-03-17T03:59:19.946Z,1.30
2018-03-17T04:01:49.996Z,1.30
2018-03-17T04:04:19.211Z,1.40
2018-03-17T04:06:48.521Z,1.40
2018-03-17T04:09:17.569Z,1.40
2018-03-17T04:11:46.824Z,1.40
2018-03-17T04:14:16.049Z,1.40
2018-03-17T04:16:45.316Z,1.40
2018-03-17T04:19:14.514Z,1.50
2018-03-17T04:21:43.806Z,1.50
2018-03-17T04:24:13.481Z,1.50
2018-03-17T04:26:42.723Z,1.40
2018-03-17T04:29:12.932Z,1.50
2018-03-17T04:31:42.129Z,1.50
2018-03-17T04:34:11.435Z,1.50
2018-03-17T04:36:40.730Z,1.50
2018-03-17T04:39:11.666Z,1.60
2018-03-17T04:41:41.062Z,1.60
2018-03-17T04:44:10.400Z,1.50
2018-03-17T04:46:40.527Z,1.50
2018-03-17T04:49:09.756Z,1.50
2018-03-17T04:51:38.949Z,1.50
2018-03-17T04:54:08.597Z,1.40
2018-03-17T04:56:37.805Z,1.40
2018-03-17T04:59:07.106Z,1.40
2018-03-17T05:01:37.123Z,1.30
2018-03-17T05:04:06.335Z,1.30
2018-03-17T05:06:35.619Z,1.30
2018-03-17T05:09:04.801Z,1.20
2018-03-17T05:11:33.962Z,1.20
2018-03-17T05:14:03.207Z,1.20
2018-03-17T05:16:32.435Z,1.20
2018-03-17T05:19:01.633Z,1.10
2018-03-17T05:21:30.911Z,1.10
2018-03-17T05:24:00.149Z,1.10
2018-03-17T05:26:29.447Z,1.10
2018-03-17T05:28:58.755Z,1.10
2018-03-17T05:31:27.970Z,1.00
2018-03-17T05:33:57.175Z,1.00
2018-03-17T05:36:27.258Z,1.10
2018-03-17T05:38:56.468Z,1.10
2018-03-17T05:41:25.721Z,1.00
2018-03-17T05:43:54.958Z,1.00
2018-03-17T05:46:25.022Z,0.90
2018-03-17T05:48:54.317Z,0.90
2018-03-17T05:51:23.521Z,1.00
2018-03-17T05:53:52.728Z,1.00
2018-03-17T05:56:22.010Z,1.00
2018-03-17T05:58:51.320Z,1.00
2018-03-17T06:01:20.510Z,1.10
2018-03-17T06:03:49.816Z,1.00
2018-03-17T06:06:19.030Z,1.00
2018-03-17T06:08:48.246Z,1.00
2018-03-17T06:11:17.712Z,1.00
2018-03-17T06:13:47.288Z,1.10
2018-03-17T06:16:17.273Z,1.00
2018-03-17T06:18:47.298Z,1.10
2018-03-17T06:21:17.329Z,1.10
2018-03-17T06:23:46.559Z,1.10
2018-03-17T06:26:15.782Z,1.10
2018-03-17T06:28:45.793Z,1.10
2018-03-17T06:31:15.014Z,1.10
2018-03-17T06:33:45.218Z,1.10
2018-03-17T06:36:14.812Z,1.20
2018-03-17T06:38:44.025Z,1.10
2018-03-17T06:41:13.257Z,1.20
2018-03-17T06:43:42.609Z,1.20
2018-03-17T06:46:11.889Z,1.30
2018-03-17T06:48:41.085Z,1.30
2018-03-17T06:51:10.406Z,1.30
2018-03-17T06:53:39.575Z,1.30
2018-03-17T06:56:08.905Z,1.30
2018-03-17T06:58:38.093Z,1.30
2018-03-17T07:01:07.507Z,1.30
2018-03-17T07:03:36.936Z,1.30
2018-03-17T07:06:06.310Z,1.30
2018-03-17T07:08:35.528Z,1.30
2018-03-17T07:11:04.916Z,1.30
2018-03-17T07:13:33.934Z,1.40
2018-03-17T07:16:03.924Z,1.40
2018-03-17T07:18:33.227Z,1.40
2018-03-17T07:21:02.505Z,1.40
2018-03-17T07:23:31.718Z,1.50
2018-03-17T07:26:01.015Z,1.50
2018-03-17T07:28:30.265Z,1.50
2018-03-17T07:30:59.535Z,1.50
2018-03-17T07:33:29.623Z,1.50
2018-03-17T07:35:58.837Z,1.50
2018-03-17T07:38:28.113Z,1.40
2018-03-17T07:40:57.419Z,1.50
2018-03-17T07:43:26.839Z,1.40
2018-03-17T07:45:56.601Z,1.40
2018-03-17T07:48:25.828Z,1.30
2018-03-17T07:50:55.743Z,1.40
2018-03-17T07:53:25.030Z,1.30
2018-03-17T07:55:54.362Z,1.30
2018-03-17T07:58:23.581Z,1.30
2018-03-17T08:00:53.553Z,1.40
2018-03-17T08:03:23.182Z,1.30
2018-03-17T08:05:52.381Z,1.30
2018-03-17T08:08:21.892Z,1.30
2018-03-17T08:10:51.155Z,1.30
2018-03-17T08:13:20.432Z,1.30
2018-03-17T08:15:49.705Z,1.30
2018-03-17T08:18:19.697Z,1.40
2018-03-17T08:20:49.723Z,1.40
2018-03-17T08:23:19.051Z,1.40
2018-03-17T08:25:49.038Z,1.30
2018-03-17T08:28:18.269Z,1.20
2018-03-17T08:30:47.513Z,1.30
2018-03-17T08:33:16.767Z,1.40
2018-03-17T08:35:46.014Z,1.40
2018-03-17T08:38:15.212Z,1.30
2018-03-17T08:40:44.529Z,1.40
2018-03-17T08:43:13.753Z,1.60
2018-03-17T08:45:42.964Z,1.60
2018-03-17T08:48:12.322Z,1.70
2018-03-17T08:50:41.629Z,1.80
2018-03-17T08:53:10.872Z,1.90
2018-03-17T08:55:40.237Z,1.90
2018-03-17T08:58:09.484Z,1.90
2018-03-17T09:00:39.642Z,1.70
2018-03-17T09:03:08.988Z,1.70
2018-03-17T09:05:38.236Z,1.80
2018-03-17T09:08:08.988Z,1.90
2018-03-17T09:10:38.223Z,1.90
2018-03-17T09:13:07.438Z,2.00
2018-03-17T09:15:36.821Z,2.00
2018-03-17T09:18:06.152Z,2.00
2018-03-17T09:20:36.190Z,1.90
2018-03-17T09:23:05.425Z,1.80
2018-03-17T09:25:34.724Z,2.00
2018-03-17T09:28:04.884Z,2.00
2018-03-17T09:30:34.213Z,2.00
2018-03-17T09:33:03.449Z,1.90
2018-03-17T09:35:32.648Z,1.80
2018-03-17T09:38:02.032Z,1.80
2018-03-17T09:40:31.204Z,1.70
2018-03-17T09:43:00.512Z,1.70
2018-03-17T09:45:29.813Z,1.70
2018-03-17T09:47:59.218Z,1.70
2018-03-17T09:50:28.478Z,1.70
2018-03-17T09:52:57.810Z,1.60
2018-03-17T09:55:27.113Z,1.60
2018-03-17T09:57:56.316Z,1.60
2018-03-17T10:00:25.630Z,1.50
2018-03-17T10:02:55.019Z,1.50
2018-03-17T10:05:24.193Z,1.60
2018-03-17T10:07:53.511Z,1.60
2018-03-17T10:10:22.771Z,1.80
2018-03-17T10:12:52.036Z,2.00
2018-03-17T10:15:22.034Z,2.10
2018-03-17T10:17:51.423Z,2.10
2018-03-17T10:20:20.735Z,2.10
2018-03-17T10:22:50.061Z,2.00
2018-03-17T10:25:19.341Z,2.10
2018-03-17T10:27:48.726Z,2.20
2018-03-17T10:30:17.891Z,2.10
2018-03-17T10:32:47.083Z,2.20
2018-03-17T10:35:16.326Z,2.30
2018-03-17T10:37:45.561Z,2.20
2018-03-17T10:40:14.841Z,2.20
2018-03-17T10:42:44.152Z,2.20
2018-03-17T10:45:13.420Z,2.20
2018-03-17T10:47:42.612Z,2.20
2018-03-17T10:50:11.860Z,2.10
2018-03-17T10:52:41.212Z,1.90
2018-03-17T10:55:10.439Z,1.90
2018-03-17T10:57:40.542Z,1.70
2018-03-17T11:00:09.871Z,1.70
2018-03-17T11:02:41.978Z,1.80
2018-03-17T11:05:11.221Z,1.80
2018-03-17T11:07:40.413Z,2.00
2018-03-17T11:10:09.628Z,2.00
2018-03-17T11:12:38.892Z,2.00
2018-03-17T11:15:08.143Z,1.90
2018-03-17T11:17:37.357Z,1.90
2018-03-17T11:20:06.632Z,2.00
2018-03-17T11:22:35.996Z,1.90
2018-03-17T11:25:06.112Z,1.70
2018-03-17T11:27:35.407Z,1.70
2018-03-17T11:30:04.646Z,1.70
2018-03-17T11:32:33.887Z,1.80
2018-03-17T11:35:03.204Z,1.90
2018-03-17T11:37:32.507Z,1.80
2018-03-17T11:40:01.677Z,1.90
2018-03-17T11:42:30.967Z,1.70
2018-03-17T11:45:00.234Z,1.60
2018-03-17T11:47:30.323Z,1.50
2018-03-17T11:49:59.699Z,1.50
2018-03-17T11:52:28.796Z,1.60
2018-03-17T11:54:58.207Z,1.70
2018-03-17T11:57:27.434Z,1.80
2018-03-17T11:59:56.636Z,1.80
2018-03-17T12:02:25.936Z,1.70
2018-03-17T12:04:56.037Z,1.70
2018-03-17T12:07:25.231Z,1.70
2018-03-17T12:09:54.435Z,1.80
2018-03-17T12:12:23.674Z,1.60
2018-03-17T12:14:53.656Z,1.50
2018-03-17T12:17:22.899Z,1.40
2018-03-17T12:19:52.153Z,1.50
2018-03-17T12:22:21.411Z,1.60
2018-03-17T12:24:51.386Z,1.60
2018-03-17T12:27:20.766Z,1.60
2018-03-17T12:29:50.093Z,1.60
2018-03-17T12:32:19.340Z,1.50
2018-03-17T12:34:48.765Z,1.70
2018-03-17T12:37:17.984Z,2.00
2018-03-17T12:39:47.367Z,2.10
2018-03-17T12:42:16.640Z,2.30
2018-03-17T12:44:46.164Z,2.40
2018-03-17T12:47:15.265Z,2.30
2018-03-17T12:49:44.567Z,2.30
2018-03-17T12:52:13.771Z,2.20
2018-03-17T12:54:43.058Z,2.10
2018-03-17T12:57:12.564Z,2.00
2018-03-17T12:59:41.830Z,2.00
2018-03-17T13:02:11.080Z,2.00
2018-03-17T13:04:40.300Z,1.90
2018-03-17T13:07:09.871Z,1.80
2018-03-17T13:09:39.061Z,1.80
2018-03-17T13:12:08.452Z,2.00
2018-03-17T13:14:37.669Z,2.00
2018-03-17T13:17:06.929Z,1.90
2018-03-17T13:19:36.125Z,1.80
2018-03-17T13:22:05.602Z,1.80
2018-03-17T13:24:36.307Z,1.70
2018-03-17T13:27:17.327Z,1.70
2018-03-17T13:29:47.332Z,1.80
2018-03-17T13:32:28.315Z,1.80
2018-03-17T13:34:58.339Z,1.50
2018-03-17T13:37:31.171Z,1.50
2018-03-17T13:40:00.464Z,1.50
2018-03-17T13:42:29.752Z,1.50
2018-03-17T13:44:58.954Z,1.50
2018-03-17T13:47:39.802Z,1.40
2018-03-17T13:50:09.034Z,1.40
2018-03-17T13:52:38.329Z,1.50
2018-03-17T13:55:07.769Z,1.50
2018-03-17T13:57:37.806Z,1.40
2018-03-17T14:00:07.031Z,1.40
2018-03-17T14:02:36.451Z,1.40
2018-03-17T14:05:05.700Z,1.50
2018-03-17T14:07:34.953Z,1.40
2018-03-17T14:10:04.251Z,1.40
2018-03-17T14:12:33.461Z,1.40
2018-03-17T14:15:02.744Z,1.30
2018-03-17T14:17:31.994Z,1.30
2018-03-17T14:20:02.063Z,1.10
2018-03-17T14:22:31.257Z,1.10
2018-03-17T14:25:00.490Z,1.10
2018-03-17T14:27:29.756Z,1.10
2018-03-17T14:29:59.108Z,1.10
2018-03-17T14:32:29.713Z,1.30
2018-03-17T14:34:59.719Z,1.30
2018-03-17T14:37:28.996Z,1.30
2018-03-17T14:39:58.205Z,1.30
2018-03-17T14:42:27.505Z,1.30
2018-03-17T14:44:56.805Z,1.30
2018-03-17T14:47:26.046Z,1.10
2018-03-17T14:49:56.022Z,0.90
2018-03-17T14:52:25.380Z,0.90
2018-03-17T14:54:54.723Z,0.90
2018-03-17T14:57:23.988Z,0.90
2018-03-17T14:59:53.227Z,0.90
2018-03-17T15:02:22.621Z,0.80
2018-03-17T15:04:52.110Z,0.60
2018-03-17T15:07:21.435Z,0.60
2018-03-17T15:09:50.796Z,0.50
2018-03-17T15:12:20.034Z,0.50
2018-03-17T15:14:49.240Z,0.50
2018-03-17T15:17:19.253Z,0.30
2018-03-17T15:19:48.480Z,0.30
2018-03-17T15:22:17.708Z,0.40
2018-03-17T15:24:46.942Z,0.40
2018-03-17T15:27:16.284Z,0.40
2018-03-17T15:29:45.478Z,0.30
2018-03-17T15:32:14.713Z,0.30
2018-03-17T15:34:43.960Z,0.30
2018-03-17T15:37:13.169Z,0.20
2018-03-17T15:39:42.370Z,0.20
2018-03-17T15:42:11.621Z,0.10
2018-03-17T15:44:40.850Z,0.10
2018-03-17T15:47:10.836Z,0.10
2018-03-17T15:49:40.144Z,0.10
2018-03-17T15:52:09.480Z,0.10
2018-03-17T15:54:38.694Z,0.10
2018-03-17T15:57:07.956Z,0.10
2018-03-17T15:59:38.114Z,0.00
2018-03-17T16:02:07.360Z,-0.10
2018-03-17T16:04:36.621Z,-0.20
2018-03-17T16:07:05.858Z,-0.10
2018-03-17T16:09:35.876Z,-0.10
2018-03-17T16:12:05.083Z,-0.20
2018-03-17T16:14:34.403Z,-0.20
2018-03-17T16:17:03.627Z,-0.20
2018-03-17T16:19:32.884Z,-0.20
2018-03-17T16:22:02.171Z,-0.40
2018-03-17T16:24:31.443Z,-0.30
2018-03-17T16:27:00.809Z,-0.30
2018-03-17T16:29:30.831Z,-0.30
2018-03-17T16:32:00.834Z,-0.40
2018-03-17T16:34:30.167Z,-0.40
2018-03-17T16:36:59.416Z,-0.50
2018-03-17T16:39:28.630Z,-0.50
2018-03-17T16:41:58.614Z,-0.50
2018-03-17T16:44:27.885Z,-0.50
2018-03-17T16:46:57.215Z,-0.60
2018-03-17T16:49:26.447Z,-0.50
2018-03-17T16:51:55.684Z,-0.60
2018-03-17T16:54:25.627Z,-0.70
2018-03-17T16:56:54.900Z,-0.70
2018-03-17T16:59:24.148Z,-0.60
2018-03-17T17:01:53.368Z,-0.60
2018-03-17T17:04:23.351Z,-0.70
2018-03-17T17:06:53.351Z,-0.70
2018-03-17T17:09:22.591Z,-0.70
2018-03-17T17:11:51.806Z,-0.60
2018-03-17T17:14:21.097Z,-0.60
2018-03-17T17:16:51.103Z,-0.60
2018-03-17T17:19:21.093Z,-0.70
2018-03-17T17:21:50.366Z,-0.70
2018-03-17T17:24:19.611Z,-0.70
2018-03-17T17:26:48.828Z,-0.70
2018-03-17T17:29:18.075Z,-0.70
2018-03-17T17:31:47.281Z,-0.60
2018-03-17T17:34:16.516Z,-0.60
2018-03-17T17:36:46.606Z,-0.80
2018-03-17T17:39:15.827Z,-0.80
2018-03-17T17:41:45.073Z,-0.90
2018-03-17T17:44:14.338Z,-0.80
2018-03-17T17:46:43.635Z,-0.70
2018-03-17T17:49:13.656Z,-0.80
2018-03-17T17:51:42.885Z,-0.70
2018-03-17T17:54:12.105Z,-0.80
2018-03-17T17:56:41.303Z,-0.80
2018-03-17T17:59:10.528Z,-0.90
2018-03-17T18:01:40.757Z,-0.90
2018-03-17T18:04:09.988Z,-0.90
2018-03-17T18:06:39.350Z,-0.90
2018-03-17T18:09:09.441Z,-0.90
2018-03-17T18:11:38.775Z,-0.90
2018-03-17T18:14:07.963Z,-0.90
2018-03-17T18:16:44.567Z,-0.90
2018-03-17T18:19:13.798Z,-0.90
2018-03-17T18:21:43.096Z,-0.90
2018-03-17T18:24:12.429Z,-0.90
2018-03-17T18:26:41.673Z,-1.10
2018-03-17T18:29:10.739Z,-1.10
2018-03-17T18:31:39.981Z,-1.10
2018-03-17T18:34:09.206Z,-1.20
2018-03-17T18:36:38.453Z,-1.10
2018-03-17T18:39:07.698Z,-1.20
2018-03-17T18:41:36.942Z,-1.20
2018-03-17T18:44:06.253Z,-1.10
2018-03-17T18:46:35.441Z,-1.20
2018-03-17T18:49:04.730Z,-1.20
2018-03-17T18:51:34.725Z,-1.20
2018-03-17T18:54:03.964Z,-1.10
2018-03-17T18:56:33.758Z,-1.10
2018-03-17T18:59:03.032Z,-1.20
2018-03-17T19:01:32.279Z,-1.10
2018-03-17T19:04:01.543Z,-1.10
2018-03-17T19:06:30.800Z,-1.10
2018-03-17T19:09:00.069Z,-1.10
2018-03-17T19:11:29.266Z,-1.10
2018-03-17T19:13:58.568Z,-1.10
2018-03-17T19:16:27.856Z,-1.10
2018-03-17T19:18:57.867Z,-1.10
2018-03-17T19:21:27.155Z,-1.20
2018-03-17T19:23:56.390Z,-1.10
2018-03-17T19:26:25.681Z,-1.10
2018-03-17T19:28:54.927Z,-1.20
2018-03-17T19:31:24.949Z,-1.30
2018-03-17T19:33:54.148Z,-1.30
2018-03-17T19:36:23.432Z,-1.30
2018-03-17T19:38:52.671Z,-1.20
2018-03-17T19:41:22.721Z,-1.20
2018-03-17T19:43:52.722Z,-1.20
2018-03-17T19:46:22.742Z,-1.30
2018-03-17T19:48:52.756Z,-1.20
2018-03-17T19:51:21.968Z,-1.20
2018-03-17T19:53:51.319Z,-1.20
2018-03-17T19:56:21.304Z,-1.30
2018-03-17T19:58:51.341Z,-1.40
2018-03-17T20:01:20.606Z,-1.30
2018-03-17T20:03:49.817Z,-1.30
2018-03-17T20:06:19.180Z,-1.30
2018-03-17T20:08:48.514Z,-1.40
2018-03-17T20:11:17.726Z,-1.40
2018-03-17T20:13:47.149Z,-1.40
2018-03-17T20:16:16.382Z,-1.40
2018-03-17T20:18:45.652Z,-1.40
2018-03-17T20:21:14.854Z,-1.40
2018-03-17T20:23:44.892Z,-1.50
2018-03-17T20:26:14.198Z,-1.40
2018-03-17T20:28:43.454Z,-1.40
2018-03-17T20:31:12.674Z,-1.40
2018-03-17T20:33:41.910Z,-1.40
2018-03-17T20:36:11.233Z,-1.40
2018-03-17T20:38:40.573Z,-1.40
2018-03-17T20:41:09.801Z,-1.30
2018-03-17T20:43:39.046Z,-1.30
2018-03-17T20:46:08.335Z,-1.20
2018-03-17T20:48:37.609Z,-1.20
2018-03-17T20:51:07.870Z,-1.30
2018-03-17T20:53:37.120Z,-1.30
2018-03-17T20:56:06.425Z,-1.30
2018-03-17T20:58:35.874Z,-1.40
2018-03-17T21:01:05.188Z,-1.30
2018-03-17T21:03:34.685Z,-1.40
2018-03-17T21:06:03.987Z,-1.30
2018-03-17T21:08:33.337Z,-1.40
2018-03-17T21:11:03.372Z,-1.30
2018-03-17T21:13:32.651Z,-1.40
2018-03-17T21:16:01.944Z,-1.40
2018-03-17T21:18:31.410Z,-1.40
2018-03-17T21:21:00.623Z,-1.30
2018-03-17T21:23:29.926Z,-1.30
2018-03-17T21:25:59.664Z,-1.30
2018-03-17T21:28:28.910Z,-1.40
2018-03-17T21:30:58.210Z,-1.30
2018-03-17T21:33:27.469Z,-1.30
2018-03-17T21:35:56.745Z,-1.40
2018-03-17T21:38:25.966Z,-1.40
2018-03-17T21:40:55.170Z,-1.40
2018-03-17T21:43:24.415Z,-1.40
2018-03-17T21:45:53.800Z,-1.40
2018-03-17T21:48:22.998Z,-1.30
2018-03-17T21:50:52.502Z,-1.40
2018-03-17T21:53:21.732Z,-1.40
2018-03-17T21:55:51.690Z,-1.40
2018-03-17T21:58:20.961Z,-1.50
2018-03-17T22:00:50.229Z,-1.50
2018-03-17T22:03:21.372Z,-1.50
2018-03-17T22:05:50.651Z,-1.50
2018-03-17T22:08:19.969Z,-1.60
2018-03-17T22:10:49.154Z,-1.60
2018-03-17T22:13:18.496Z,-1.60
2018-03-17T22:15:47.713Z,-1.60
2018-03-17T22:18:20.894Z,-1.50
2018-03-17T22:20:50.144Z,-1.60
2018-03-17T22:23:19.449Z,-1.60
2018-03-17T22:25:48.732Z,-1.50
2018-03-17T22:28:17.977Z,-1.50
2018-03-17T22:30:47.231Z,-1.60
2018-03-17T22:33:21.123Z,-1.70
2018-03-17T22:35:50.349Z,-1.70
2018-03-17T22:38:19.647Z,-1.70
2018-03-17T22:40:48.866Z,-1.70
2018-03-17T22:43:18.105Z,-1.60
2018-03-17T22:45:47.345Z,-1.60
2018-03-17T22:48:20.762Z,-1.60
2018-03-17T22:50:50.052Z,-1.60
2018-03-17T22:53:19.262Z,-1.70
2018-03-17T22:55:49.262Z,-1.70
2018-03-17T22:58:18.456Z,-1.70
2018-03-17T23:00:48.469Z,-1.60
2018-03-17T23:03:25.573Z,-1.60
2018-03-17T23:05:54.908Z,-1.60
2018-03-17T23:08:24.158Z,-1.60
2018-03-17T23:10:53.553Z,-1.60
2018-03-17T23:13:22.780Z,-1.70
2018-03-17T23:15:52.971Z,-1.60
2018-03-17T23:18:22.202Z,-1.60
2018-03-17T23:20:52.243Z,-1.70
2018-03-17T23:23:21.448Z,-1.70
2018-03-17T23:25:50.729Z,-1.70
2018-03-17T23:28:20.087Z,-1.70
2018-03-17T23:30:49.378Z,-1.70
2018-03-17T23:33:20.631Z,-1.70
2018-03-17T23:35:49.908Z,-1.60
2018-03-17T23:38:19.106Z,-1.60
2018-03-17T23:40:48.388Z,-1.60
2018-03-17T23:43:17.642Z,-1.60
2018-03-17T23:45:46.708Z,-1.60
2018-03-17T23:48:15.874Z,-1.60
2018-03-17T23:50:45.128Z,-1.60
2018-03-17T23:53:14.374Z,-1.60
2018-03-17T23:55:43.614Z,-1.60
2018-03-17T23:58:12.917Z,-1.60
